createdAt,value
2022-08-23T00:12:58.992Z,17.22
2022-08-23T00:28:00.982Z,17.12
2022-08-23T00:43:02.782Z,17.22
2022-08-23T00:58:08.152Z,17.01
2022-08-23T01:13:11.253Z,17.12
2022-08-23T01:28:13.377Z,17.14
2022-08-23T01:43:14.753Z,17.25
2022-08-23T01:58:16.671Z,17.11
2022-08-23T02:13:17.396Z,17.06
2022-08-23T02:28:19.752Z,16.82
2022-08-23T02:43:21.151Z,16.88
2022-08-23T02:58:22.552Z,17.12
2022-08-23T03:13:23.683Z,16.89
2022-08-23T03:28:24.844Z,16.91
2022-08-23T03:43:25.897Z,16.96
2022-08-23T03:58:29.080Z,16.91
2022-08-23T04:13:30.097Z,16.78
2022-08-23T04:28:31.715Z,16.71
2022-08-23T04:43:32.626Z,16.89
2022-08-23T04:58:33.759Z,16.96
2022-08-23T05:13:34.993Z,17.22
2022-08-23T05:28:36.386Z,17.64
2022-08-23T05:43:37.325Z,17.75
2022-08-23T05:58:38.723Z,18.32
2022-08-23T06:13:38.808Z,19.59
2022-08-23T06:28:50.118Z,20.21
2022-08-23T06:43:44.610Z,20.67
2022-08-23T06:58:45.674Z,21.01
2022-08-23T07:13:46.785Z,21.59
2022-08-23T07:28:46.941Z,21.65
2022-08-23T07:43:48.516Z,21.72
2022-08-23T07:58:49.351Z,22.49
2022-08-23T08:13:51.412Z,22.46
2022-08-23T08:28:51.750Z,22.55
2022-08-23T08:43:52.883Z,23.42
2022-08-23T08:58:54.843Z,24.31
2022-08-23T09:13:55.250Z,24.65
2022-08-23T09:28:56.706Z,26.06
2022-08-23T09:43:58.263Z,27.00
2022-08-23T09:58:58.883Z,27.55
2022-08-23T10:14:00.531Z,27.39
2022-08-23T10:29:01.248Z,27.13
2022-08-23T10:44:02.373Z,28.52
2022-08-23T10:59:03.436Z,29.89
2022-08-23T11:14:04.298Z,30.08
2022-08-23T11:29:04.963Z,30.34
2022-08-23T11:44:05.935Z,29.09
2022-08-23T11:59:08.698Z,28.12
2022-08-23T12:14:10.337Z,28.98
2022-08-23T12:29:12.253Z,29.30
2022-08-23T12:44:13.765Z,28.66
2022-08-23T12:59:14.079Z,27.78
2022-08-23T13:14:15.171Z,28.56
2022-08-23T13:29:16.203Z,28.36
2022-08-23T13:44:19.225Z,27.92
2022-08-23T13:59:21.886Z,29.15
2022-08-23T14:14:24.401Z,29.16
2022-08-23T14:29:25.436Z,29.52
2022-08-23T14:44:31.437Z,29.36
2022-08-23T14:59:32.787Z,29.70
2022-08-23T15:14:35.906Z,30.15
2022-08-23T15:29:37.716Z,28.62
2022-08-23T15:44:41.816Z,28.25
2022-08-23T15:59:43.232Z,28.58
2022-08-23T16:14:44.288Z,28.81
2022-08-23T16:31:38.392Z,28.07
2022-08-23T16:46:37.627Z,27.18
2022-08-23T17:01:38.105Z,26.28
2022-08-23T17:16:38.713Z,25.50
2022-08-23T17:31:39.169Z,25.06
2022-08-23T17:46:40.362Z,24.46
2022-08-23T18:01:41.192Z,23.87
2022-08-23T18:16:41.794Z,22.98
2022-08-23T18:31:45.886Z,22.10
2022-08-23T18:46:45.935Z,21.38
2022-08-23T19:01:46.134Z,20.72
2022-08-23T19:16:48.526Z,20.03
2022-08-23T19:31:49.261Z,19.54
2022-08-23T19:46:50.546Z,19.02
2022-08-23T20:01:50.693Z,18.54
2022-08-23T20:16:50.798Z,18.36
2022-08-23T20:31:50.836Z,17.97
2022-08-23T20:46:54.329Z,17.43
2022-08-23T21:01:55.071Z,17.31
2022-08-23T21:16:55.067Z,16.88
2022-08-23T21:31:55.752Z,16.75
2022-08-23T21:46:56.769Z,16.21
2022-08-23T22:01:57.401Z,16.15
2022-08-23T22:16:57.961Z,15.92
2022-08-23T22:31:58.054Z,15.64
2022-08-23T22:46:58.154Z,15.49
2022-08-23T23:01:58.419Z,15.16
2022-08-23T23:16:59.481Z,14.92
2022-08-23T23:31:59.465Z,14.72
2022-08-23T23:46:59.605Z,14.55
